Terminal Aerodrome Forecast
Issued by NWS Sterling, VA

Current Version | Previous Version | Graphics & Text | Print | Product List | Glossary On
Versions: 1 2 3 4 5 6 7 8 9 10 11 12 13 14 15 16 17 18 19 20 21 22 23 24
000
FTUS41 KLWX 311130
TAFIAD
TAF
KIAD 311130Z 3112/0118 VRB03KT P6SM FEW050
     FM311600 20005KT P6SM SCT050
     FM312100 19005KT P6SM VCTS BKN050CB
     FM010300 34004KT P6SM VCSH OVC045=

USA.gov is the U.S. government's official web portal to all federal, state and local government web resources and services.